sensor_id;sensor_type;location;lat;lon;timestamp;P1;durP1;ratioP1;P2;durP2;ratioP2
25435;SDS011;13363;52.772;-3.890;2023-06-01T00:01:56;7.37;;;6.60;;
25435;SDS011;13363;52.772;-3.890;2023-06-01T00:04:22;7.40;;;6.80;;
25435;SDS011;13363;52.772;-3.890;2023-06-01T00:06:48;8.13;;;7.50;;
25435;SDS011;13363;52.772;-3.890;2023-06-01T00:09:14;8.50;;;7.40;;
25435;SDS011;13363;52.772;-3.890;2023-06-01T00:11:40;8.23;;;7.53;;
25435;SDS011;13363;52.772;-3.890;2023-06-01T00:14:06;8.40;;;7.50;;
25435;SDS011;13363;52.772;-3.890;2023-06-01T00:16:32;7.60;;;7.00;;
25435;SDS011;13363;52.772;-3.890;2023-06-01T00:18:58;8.17;;;6.80;;
25435;SDS011;13363;52.772;-3.890;2023-06-01T00:21:26;7.70;;;7.07;;
25435;SDS011;13363;52.772;-3.890;2023-06-01T00:23:53;9.00;;;8.23;;
25435;SDS011;13363;52.772;-3.890;2023-06-01T00:26:19;9.00;;;8.30;;
25435;SDS011;13363;52.772;-3.890;2023-06-01T00:28:46;8.93;;;7.70;;
25435;SDS011;13363;52.772;-3.890;2023-06-01T00:31:12;8.27;;;7.57;;
25435;SDS011;13363;52.772;-3.890;2023-06-01T00:33:37;8.83;;;8.03;;
25435;SDS011;13363;52.772;-3.890;2023-06-01T00:36:04;7.27;;;6.57;;
25435;SDS011;13363;52.772;-3.890;2023-06-01T00:38:30;8.23;;;7.53;;
25435;SDS011;13363;52.772;-3.890;2023-06-01T00:40:56;8.63;;;7.90;;
25435;SDS011;13363;52.772;-3.890;2023-06-01T00:43:22;7.97;;;7.37;;
25435;SDS011;13363;52.772;-3.890;2023-06-01T00:45:48;8.23;;;7.50;;
25435;SDS011;13363;52.772;-3.890;2023-06-01T00:48:15;8.30;;;7.50;;
25435;SDS011;13363;52.772;-3.890;2023-06-01T00:50:42;8.07;;;7.37;;
25435;SDS011;13363;52.772;-3.890;2023-06-01T00:53:11;7.83;;;7.20;;
25435;SDS011;13363;52.772;-3.890;2023-06-01T00:55:43;9.70;;;7.87;;
25435;SDS011;13363;52.772;-3.890;2023-06-01T00:58:11;9.47;;;8.63;;
25435;SDS011;13363;52.772;-3.890;2023-06-01T01:00:40;9.03;;;8.23;;
25435;SDS011;13363;52.772;-3.890;2023-06-01T01:03:06;8.40;;;7.60;;
25435;SDS011;13363;52.772;-3.890;2023-06-01T01:05:34;8.30;;;7.67;;
25435;SDS011;13363;52.772;-3.890;2023-06-01T01:13:34;7.00;;;6.43;;
25435;SDS011;13363;52.772;-3.890;2023-06-01T01:16:04;7.40;;;6.83;;
25435;SDS011;13363;52.772;-3.890;2023-06-01T01:18:39;6.47;;;5.97;;
25435;SDS011;13363;52.772;-3.890;2023-06-01T01:21:07;7.60;;;6.97;;
25435;SDS011;13363;52.772;-3.890;2023-06-01T01:29:09;6.93;;;6.40;;
25435;SDS011;13363;52.772;-3.890;2023-06-01T01:31:39;6.83;;;6.33;;
25435;SDS011;13363;52.772;-3.890;2023-06-01T01:34:07;9.13;;;6.70;;
25435;SDS011;13363;52.772;-3.890;2023-06-01T01:36:34;6.87;;;6.43;;
25435;SDS011;13363;52.772;-3.890;2023-06-01T01:39:03;7.13;;;6.50;;
25435;SDS011;13363;52.772;-3.890;2023-06-01T01:41:30;7.00;;;6.40;;
25435;SDS011;13363;52.772;-3.890;2023-06-01T01:43:57;7.97;;;7.37;;
25435;SDS011;13363;52.772;-3.890;2023-06-01T01:46:28;6.93;;;6.33;;
25435;SDS011;13363;52.772;-3.890;2023-06-01T01:51:54;8.53;;;7.83;;
25435;SDS011;13363;52.772;-3.890;2023-06-01T01:54:27;8.33;;;7.63;;
25435;SDS011;13363;52.772;-3.890;2023-06-01T01:56:56;8.07;;;7.40;;
25435;SDS011;13363;52.772;-3.890;2023-06-01T01:59:25;9.00;;;8.10;;
25435;SDS011;13363;52.772;-3.890;2023-06-01T02:01:52;9.50;;;8.63;;
25435;SDS011;13363;52.772;-3.890;2023-06-01T02:04:18;9.23;;;8.33;;
25435;SDS011;13363;52.772;-3.890;2023-06-01T02:06:44;9.30;;;8.40;;
25435;SDS011;13363;52.772;-3.890;2023-06-01T02:09:10;7.73;;;6.93;;
25435;SDS011;13363;52.772;-3.890;2023-06-01T02:11:36;6.63;;;6.23;;
25435;SDS011;13363;52.772;-3.890;2023-06-01T02:14:03;7.37;;;6.73;;
25435;SDS011;13363;52.772;-3.890;2023-06-01T02:16:29;7.10;;;6.60;;
25435;SDS011;13363;52.772;-3.890;2023-06-01T02:18:55;7.40;;;6.67;;
25435;SDS011;13363;52.772;-3.890;2023-06-01T02:21:23;7.33;;;6.73;;
25435;SDS011;13363;52.772;-3.890;2023-06-01T02:23:49;10.43;;;6.87;;
25435;SDS011;13363;52.772;-3.890;2023-06-01T02:26:15;7.47;;;6.87;;
25435;SDS011;13363;52.772;-3.890;2023-06-01T02:28:41;7.80;;;7.20;;
25435;SDS011;13363;52.772;-3.890;2023-06-01T02:31:12;8.30;;;7.60;;
25435;SDS011;13363;52.772;-3.890;2023-06-01T02:33:39;7.40;;;6.80;;
25435;SDS011;13363;52.772;-3.890;2023-06-01T02:36:05;8.20;;;7.37;;
25435;SDS011;13363;52.772;-3.890;2023-06-01T02:38:31;7.97;;;7.27;;
25435;SDS011;13363;52.772;-3.890;2023-06-01T02:40:57;7.37;;;6.77;;
25435;SDS011;13363;52.772;-3.890;2023-06-01T02:43:23;7.70;;;7.00;;
25435;SDS011;13363;52.772;-3.890;2023-06-01T02:45:49;7.30;;;6.70;;
25435;SDS011;13363;52.772;-3.890;2023-06-01T02:48:16;8.20;;;7.40;;
25435;SDS011;13363;52.772;-3.890;2023-06-01T02:50:41;7.23;;;6.53;;
25435;SDS011;13363;52.772;-3.890;2023-06-01T02:53:08;8.43;;;7.47;;
25435;SDS011;13363;52.772;-3.890;2023-06-01T02:55:34;7.60;;;6.93;;
25435;SDS011;13363;52.772;-3.890;2023-06-01T02:58:00;7.73;;;7.13;;
25435;SDS011;13363;52.772;-3.890;2023-06-01T03:00:26;7.70;;;7.00;;
25435;SDS011;13363;52.772;-3.890;2023-06-01T03:02:53;7.10;;;6.60;;
25435;SDS011;13363;52.772;-3.890;2023-06-01T03:05:19;7.80;;;7.03;;
25435;SDS011;13363;52.772;-3.890;2023-06-01T03:07:46;7.80;;;7.10;;
25435;SDS011;13363;52.772;-3.890;2023-06-01T03:10:12;7.43;;;6.83;;
25435;SDS011;13363;52.772;-3.890;2023-06-01T03:12:38;7.73;;;7.03;;
25435;SDS011;13363;52.772;-3.890;2023-06-01T03:15:05;7.33;;;6.63;;
25435;SDS011;13363;52.772;-3.890;2023-06-01T03:17:31;9.17;;;8.40;;
25435;SDS011;13363;52.772;-3.890;2023-06-01T03:19:58;8.73;;;7.93;;
25435;SDS011;13363;52.772;-3.890;2023-06-01T03:22:24;8.27;;;7.47;;
25435;SDS011;13363;52.772;-3.890;2023-06-01T03:24:50;8.70;;;7.80;;
25435;SDS011;13363;52.772;-3.890;2023-06-01T03:27:17;7.70;;;7.10;;
25435;SDS011;13363;52.772;-3.890;2023-06-01T03:29:44;9.00;;;8.23;;
25435;SDS011;13363;52.772;-3.890;2023-06-01T03:32:11;7.13;;;6.53;;
25435;SDS011;13363;52.772;-3.890;2023-06-01T03:34:37;7.13;;;6.63;;
25435;SDS011;13363;52.772;-3.890;2023-06-01T03:37:05;7.47;;;6.87;;
25435;SDS011;13363;52.772;-3.890;2023-06-01T03:39:32;6.60;;;5.97;;
25435;SDS011;13363;52.772;-3.890;2023-06-01T03:41:59;7.40;;;6.80;;
25435;SDS011;13363;52.772;-3.890;2023-06-01T03:44:26;6.47;;;6.07;;
25435;SDS011;13363;52.772;-3.890;2023-06-01T03:46:52;6.90;;;6.30;;
25435;SDS011;13363;52.772;-3.890;2023-06-01T03:49:18;6.27;;;5.80;;
25435;SDS011;13363;52.772;-3.890;2023-06-01T03:51:44;6.93;;;6.33;;
25435;SDS011;13363;52.772;-3.890;2023-06-01T03:54:10;7.10;;;6.60;;
25435;SDS011;13363;52.772;-3.890;2023-06-01T03:56:36;7.20;;;6.60;;
25435;SDS011;13363;52.772;-3.890;2023-06-01T03:59:02;7.20;;;6.53;;
25435;SDS011;13363;52.772;-3.890;2023-06-01T04:01:28;8.93;;;8.13;;
25435;SDS011;13363;52.772;-3.890;2023-06-01T04:03:57;8.67;;;7.87;;
25435;SDS011;13363;52.772;-3.890;2023-06-01T04:06:23;7.63;;;7.03;;
25435;SDS011;13363;52.772;-3.890;2023-06-01T04:08:50;7.93;;;7.23;;
25435;SDS011;13363;52.772;-3.890;2023-06-01T04:11:20;8.03;;;7.33;;
25435;SDS011;13363;52.772;-3.890;2023-06-01T04:13:49;7.17;;;6.57;;
25435;SDS011;13363;52.772;-3.890;2023-06-01T04:16:16;7.43;;;6.83;;
25435;SDS011;13363;52.772;-3.890;2023-06-01T04:18:42;7.40;;;6.80;;
25435;SDS011;13363;52.772;-3.890;2023-06-01T04:21:08;7.60;;;7.00;;
25435;SDS011;13363;52.772;-3.890;2023-06-01T04:23:34;6.50;;;5.90;;
25435;SDS011;13363;52.772;-3.890;2023-06-01T04:26:04;8.03;;;7.27;;
25435;SDS011;13363;52.772;-3.890;2023-06-01T04:28:35;8.80;;;7.30;;
25435;SDS011;13363;52.772;-3.890;2023-06-01T04:31:01;8.33;;;7.63;;
25435;SDS011;13363;52.772;-3.890;2023-06-01T04:33:28;7.10;;;6.60;;
25435;SDS011;13363;52.772;-3.890;2023-06-01T04:35:54;6.27;;;5.83;;
25435;SDS011;13363;52.772;-3.890;2023-06-01T04:38:20;6.23;;;5.70;;
25435;SDS011;13363;52.772;-3.890;2023-06-01T04:40:46;6.13;;;5.73;;
25435;SDS011;13363;52.772;-3.890;2023-06-01T04:43:13;6.60;;;6.00;;
25435;SDS011;13363;52.772;-3.890;2023-06-01T04:45:44;7.10;;;6.47;;
25435;SDS011;13363;52.772;-3.890;2023-06-01T04:48:11;7.20;;;6.60;;
25435;SDS011;13363;52.772;-3.890;2023-06-01T04:50:37;7.93;;;6.80;;
25435;SDS011;13363;52.772;-3.890;2023-06-01T04:53:03;7.50;;;6.90;;
25435;SDS011;13363;52.772;-3.890;2023-06-01T04:55:30;8.10;;;7.40;;
25435;SDS011;13363;52.772;-3.890;2023-06-01T04:57:55;6.37;;;5.87;;
25435;SDS011;13363;52.772;-3.890;2023-06-01T05:00:22;7.33;;;5.33;;
25435;SDS011;13363;52.772;-3.890;2023-06-01T05:02:48;5.97;;;5.57;;
25435;SDS011;13363;52.772;-3.890;2023-06-01T05:05:15;6.40;;;5.90;;
25435;SDS011;13363;52.772;-3.890;2023-06-01T05:07:41;7.37;;;5.53;;
25435;SDS011;13363;52.772;-3.890;2023-06-01T05:10:08;8.13;;;7.10;;
25435;SDS011;13363;52.772;-3.890;2023-06-01T05:12:35;8.10;;;7.33;;
25435;SDS011;13363;52.772;-3.890;2023-06-01T05:15:05;8.03;;;5.87;;
25435;SDS011;13363;52.772;-3.890;2023-06-01T05:17:32;7.10;;;6.50;;
25435;SDS011;13363;52.772;-3.890;2023-06-01T05:19:58;8.03;;;7.33;;
25435;SDS011;13363;52.772;-3.890;2023-06-01T05:22:25;5.70;;;5.30;;
25435;SDS011;13363;52.772;-3.890;2023-06-01T05:24:51;5.70;;;5.30;;
25435;SDS011;13363;52.772;-3.890;2023-06-01T05:27:17;7.33;;;5.70;;
25435;SDS011;13363;52.772;-3.890;2023-06-01T05:29:43;5.40;;;5.00;;
25435;SDS011;13363;52.772;-3.890;2023-06-01T05:32:09;5.77;;;5.17;;
25435;SDS011;13363;52.772;-3.890;2023-06-01T05:34:40;5.70;;;5.30;;
25435;SDS011;13363;52.772;-3.890;2023-06-01T05:37:10;6.53;;;5.93;;
25435;SDS011;13363;52.772;-3.890;2023-06-01T05:39:36;5.47;;;4.97;;
25435;SDS011;13363;52.772;-3.890;2023-06-01T05:42:03;6.00;;;5.40;;
25435;SDS011;13363;52.772;-3.890;2023-06-01T05:44:31;6.00;;;5.60;;
25435;SDS011;13363;52.772;-3.890;2023-06-01T05:46:57;6.43;;;5.70;;
25435;SDS011;13363;52.772;-3.890;2023-06-01T05:49:23;6.40;;;5.83;;
25435;SDS011;13363;52.772;-3.890;2023-06-01T05:51:48;6.80;;;6.20;;
25435;SDS011;13363;52.772;-3.890;2023-06-01T05:54:14;6.90;;;6.33;;
25435;SDS011;13363;52.772;-3.890;2023-06-01T05:56:40;6.27;;;5.67;;
25435;SDS011;13363;52.772;-3.890;2023-06-01T05:59:06;6.63;;;5.50;;
25435;SDS011;13363;52.772;-3.890;2023-06-01T06:01:32;5.23;;;4.83;;
25435;SDS011;13363;52.772;-3.890;2023-06-01T06:03:58;4.80;;;4.50;;
25435;SDS011;13363;52.772;-3.890;2023-06-01T06:06:26;5.23;;;4.77;;
25435;SDS011;13363;52.772;-3.890;2023-06-01T06:08:57;5.40;;;5.10;;
25435;SDS011;13363;52.772;-3.890;2023-06-01T06:11:29;5.70;;;5.30;;
25435;SDS011;13363;52.772;-3.890;2023-06-01T06:14:02;5.45;;;5.05;;
25435;SDS011;13363;52.772;-3.890;2023-06-01T06:16:33;3.97;;;3.78;;
25435;SDS011;13363;52.772;-3.890;2023-06-01T06:19:00;4.55;;;4.32;;
25435;SDS011;13363;52.772;-3.890;2023-06-01T06:21:26;5.25;;;4.90;;
25435;SDS011;13363;52.772;-3.890;2023-06-01T06:23:53;5.30;;;5.00;;
25435;SDS011;13363;52.772;-3.890;2023-06-01T06:26:25;5.20;;;4.90;;
25435;SDS011;13363;52.772;-3.890;2023-06-01T06:28:56;5.70;;;5.30;;
25435;SDS011;13363;52.772;-3.890;2023-06-01T06:31:42;4.65;;;4.45;;
25435;SDS011;13363;52.772;-3.890;2023-06-01T06:34:11;4.40;;;4.20;;
25435;SDS011;13363;52.772;-3.890;2023-06-01T06:36:38;5.30;;;4.75;;
25435;SDS011;13363;52.772;-3.890;2023-06-01T06:39:03;5.07;;;4.43;;
25435;SDS011;13363;52.772;-3.890;2023-06-01T06:41:30;5.40;;;5.00;;
25435;SDS011;13363;52.772;-3.890;2023-06-01T06:43:56;4.40;;;4.20;;
25435;SDS011;13363;52.772;-3.890;2023-06-01T06:46:22;4.95;;;4.65;;
25435;SDS011;13363;52.772;-3.890;2023-06-01T06:48:48;4.75;;;4.45;;
25435;SDS011;13363;52.772;-3.890;2023-06-01T06:51:14;4.88;;;4.57;;
25435;SDS011;13363;52.772;-3.890;2023-06-01T06:53:40;4.82;;;4.53;;
25435;SDS011;13363;52.772;-3.890;2023-06-01T06:56:06;4.15;;;3.95;;
25435;SDS011;13363;52.772;-3.890;2023-06-01T06:58:32;4.70;;;4.40;;
25435;SDS011;13363;52.772;-3.890;2023-06-01T07:00:58;4.30;;;4.00;;
25435;SDS011;13363;52.772;-3.890;2023-06-01T07:03:25;4.60;;;4.20;;
25435;SDS011;13363;52.772;-3.890;2023-06-01T07:05:51;4.00;;;3.80;;
25435;SDS011;13363;52.772;-3.890;2023-06-01T07:08:17;4.80;;;4.38;;
25435;SDS011;13363;52.772;-3.890;2023-06-01T07:10:43;4.20;;;3.90;;
25435;SDS011;13363;52.772;-3.890;2023-06-01T07:13:09;4.20;;;4.00;;
25435;SDS011;13363;52.772;-3.890;2023-06-01T07:15:35;4.25;;;3.90;;
25435;SDS011;13363;52.772;-3.890;2023-06-01T07:18:01;4.40;;;4.10;;
25435;SDS011;13363;52.772;-3.890;2023-06-01T07:20:27;4.07;;;3.72;;
25435;SDS011;13363;52.772;-3.890;2023-06-01T07:22:54;4.07;;;3.85;;
25435;SDS011;13363;52.772;-3.890;2023-06-01T07:25:20;4.55;;;4.18;;
25435;SDS011;13363;52.772;-3.890;2023-06-01T07:27:46;4.50;;;4.20;;
25435;SDS011;13363;52.772;-3.890;2023-06-01T07:30:13;5.20;;;4.80;;
25435;SDS011;13363;52.772;-3.890;2023-06-01T07:32:39;4.60;;;4.13;;
25435;SDS011;13363;52.772;-3.890;2023-06-01T07:35:05;4.75;;;4.45;;
25435;SDS011;13363;52.772;-3.890;2023-06-01T07:37:32;4.85;;;4.55;;
25435;SDS011;13363;52.772;-3.890;2023-06-01T07:39:58;4.38;;;4.07;;
25435;SDS011;13363;52.772;-3.890;2023-06-01T07:42:24;4.70;;;4.40;;
25435;SDS011;13363;52.772;-3.890;2023-06-01T07:44:50;4.53;;;4.13;;
25435;SDS011;13363;52.772;-3.890;2023-06-01T07:47:16;4.65;;;4.35;;
25435;SDS011;13363;52.772;-3.890;2023-06-01T07:49:42;4.43;;;4.13;;
25435;SDS011;13363;52.772;-3.890;2023-06-01T07:52:08;4.70;;;4.30;;
25435;SDS011;13363;52.772;-3.890;2023-06-01T07:54:34;5.07;;;4.78;;
25435;SDS011;13363;52.772;-3.890;2023-06-01T07:57:03;5.15;;;4.75;;
25435;SDS011;13363;52.772;-3.890;2023-06-01T07:59:30;5.07;;;4.68;;
25435;SDS011;13363;52.772;-3.890;2023-06-01T08:01:56;5.72;;;5.18;;
25435;SDS011;13363;52.772;-3.890;2023-06-01T08:04:24;5.78;;;4.50;;
25435;SDS011;13363;52.772;-3.890;2023-06-01T08:06:52;5.25;;;4.80;;
25435;SDS011;13363;52.772;-3.890;2023-06-01T08:09:21;6.13;;;5.18;;
25435;SDS011;13363;52.772;-3.890;2023-06-01T08:11:49;6.05;;;5.50;;
25435;SDS011;13363;52.772;-3.890;2023-06-01T08:14:16;5.45;;;5.03;;
25435;SDS011;13363;52.772;-3.890;2023-06-01T08:16:43;6.22;;;5.70;;
25435;SDS011;13363;52.772;-3.890;2023-06-01T08:19:10;7.38;;;5.60;;
25435;SDS011;13363;52.772;-3.890;2023-06-01T08:21:36;5.60;;;5.20;;
25435;SDS011;13363;52.772;-3.890;2023-06-01T08:24:03;5.47;;;5.05;;
25435;SDS011;13363;52.772;-3.890;2023-06-01T08:26:35;5.53;;;5.13;;
25435;SDS011;13363;52.772;-3.890;2023-06-01T08:29:04;5.13;;;4.72;;
25435;SDS011;13363;52.772;-3.890;2023-06-01T08:31:30;5.60;;;5.10;;
25435;SDS011;13363;52.772;-3.890;2023-06-01T08:33:58;5.57;;;5.07;;
25435;SDS011;13363;52.772;-3.890;2023-06-01T08:36:28;5.50;;;5.00;;
25435;SDS011;13363;52.772;-3.890;2023-06-01T08:38:58;5.32;;;4.93;;
25435;SDS011;13363;52.772;-3.890;2023-06-01T08:41:54;6.18;;;5.65;;
25435;SDS011;13363;52.772;-3.890;2023-06-01T08:44:38;5.50;;;5.10;;
25435;SDS011;13363;52.772;-3.890;2023-06-01T08:47:09;5.18;;;4.88;;
25435;SDS011;13363;52.772;-3.890;2023-06-01T08:49:41;5.28;;;4.90;;
25435;SDS011;13363;52.772;-3.890;2023-06-01T08:52:11;5.05;;;4.70;;
25435;SDS011;13363;52.772;-3.890;2023-06-01T08:54:38;5.28;;;4.88;;
25435;SDS011;13363;52.772;-3.890;2023-06-01T08:57:05;5.40;;;5.00;;
25435;SDS011;13363;52.772;-3.890;2023-06-01T08:59:33;5.40;;;4.90;;
25435;SDS011;13363;52.772;-3.890;2023-06-01T09:02:00;5.65;;;5.05;;
25435;SDS011;13363;52.772;-3.890;2023-06-01T09:04:26;4.88;;;4.53;;
25435;SDS011;13363;52.772;-3.890;2023-06-01T09:06:54;5.35;;;4.90;;
25435;SDS011;13363;52.772;-3.890;2023-06-01T09:09:26;4.43;;;4.13;;
25435;SDS011;13363;52.772;-3.890;2023-06-01T09:14:44;4.93;;;4.53;;
25435;SDS011;13363;52.772;-3.890;2023-06-01T09:17:23;5.50;;;5.10;;
25435;SDS011;13363;52.772;-3.890;2023-06-01T09:19:54;4.88;;;4.47;;
25435;SDS011;13363;52.772;-3.890;2023-06-01T09:22:24;5.35;;;4.85;;
25435;SDS011;13363;52.772;-3.890;2023-06-01T09:25:10;4.90;;;4.53;;
25435;SDS011;13363;52.772;-3.890;2023-06-01T09:27:44;5.20;;;4.80;;
25435;SDS011;13363;52.772;-3.890;2023-06-01T09:30:18;5.07;;;4.68;;
25435;SDS011;13363;52.772;-3.890;2023-06-01T09:32:46;4.80;;;4.50;;
25435;SDS011;13363;52.772;-3.890;2023-06-01T09:35:16;4.63;;;4.22;;
25435;SDS011;13363;52.772;-3.890;2023-06-01T09:38:01;4.32;;;3.92;;
25435;SDS011;13363;52.772;-3.890;2023-06-01T09:40:31;4.35;;;4.03;;
25435;SDS011;13363;52.772;-3.890;2023-06-01T09:42:58;4.30;;;4.00;;
25435;SDS011;13363;52.772;-3.890;2023-06-01T09:45:24;4.45;;;4.15;;
25435;SDS011;13363;52.772;-3.890;2023-06-01T09:47:57;4.82;;;4.53;;
25435;SDS011;13363;52.772;-3.890;2023-06-01T09:50:43;4.80;;;4.50;;
25435;SDS011;13363;52.772;-3.890;2023-06-01T09:53:10;4.40;;;4.10;;
25435;SDS011;13363;52.772;-3.890;2023-06-01T09:55:39;4.18;;;3.85;;
25435;SDS011;13363;52.772;-3.890;2023-06-01T09:58:23;4.82;;;4.40;;
25435;SDS011;13363;52.772;-3.890;2023-06-01T10:00:50;4.60;;;4.30;;
25435;SDS011;13363;52.772;-3.890;2023-06-01T10:03:16;4.35;;;3.95;;
25435;SDS011;13363;52.772;-3.890;2023-06-01T10:05:44;4.20;;;3.90;;
25435;SDS011;13363;52.772;-3.890;2023-06-01T10:08:11;5.05;;;4.65;;
25435;SDS011;13363;52.772;-3.890;2023-06-01T10:10:38;5.57;;;4.80;;
25435;SDS011;13363;52.772;-3.890;2023-06-01T10:13:07;4.97;;;4.57;;
25435;SDS011;13363;52.772;-3.890;2023-06-01T10:15:33;5.32;;;4.88;;
25435;SDS011;13363;52.772;-3.890;2023-06-01T10:18:02;4.75;;;4.40;;
25435;SDS011;13363;52.772;-3.890;2023-06-01T10:20:33;4.72;;;4.43;;
25435;SDS011;13363;52.772;-3.890;2023-06-01T10:23:00;5.60;;;5.10;;
25435;SDS011;13363;52.772;-3.890;2023-06-01T10:25:28;5.00;;;4.45;;
25435;SDS011;13363;52.772;-3.890;2023-06-01T10:28:06;4.45;;;4.15;;
25435;SDS011;13363;52.772;-3.890;2023-06-01T10:30:34;5.85;;;5.05;;
25435;SDS011;13363;52.772;-3.890;2023-06-01T10:33:01;5.32;;;4.93;;
25435;SDS011;13363;52.772;-3.890;2023-06-01T10:40:34;4.90;;;4.50;;
25435;SDS011;13363;52.772;-3.890;2023-06-01T10:43:00;5.05;;;4.75;;
25435;SDS011;13363;52.772;-3.890;2023-06-01T10:48:09;4.97;;;4.65;;
25435;SDS011;13363;52.772;-3.890;2023-06-01T10:50:37;4.97;;;4.57;;
25435;SDS011;13363;52.772;-3.890;2023-06-01T10:53:23;5.03;;;4.63;;
25435;SDS011;13363;52.772;-3.890;2023-06-01T10:59:32;5.17;;;4.77;;
25435;SDS011;13363;52.772;-3.890;2023-06-01T11:01:33;5.18;;;4.78;;
25435;SDS011;13363;52.772;-3.890;2023-06-01T11:04:00;4.78;;;4.43;;
25435;SDS011;13363;52.772;-3.890;2023-06-01T11:06:30;4.78;;;4.38;;
25435;SDS011;13363;52.772;-3.890;2023-06-01T11:09:05;5.20;;;4.80;;
25435;SDS011;13363;52.772;-3.890;2023-06-01T11:14:23;5.35;;;4.95;;
25435;SDS011;13363;52.772;-3.890;2023-06-01T11:16:54;5.68;;;5.28;;
25435;SDS011;13363;52.772;-3.890;2023-06-01T11:19:23;6.47;;;5.90;;
25435;SDS011;13363;52.772;-3.890;2023-06-01T11:21:57;5.68;;;5.28;;
25435;SDS011;13363;52.772;-3.890;2023-06-01T11:24:33;6.65;;;6.07;;
25435;SDS011;13363;52.772;-3.890;2023-06-01T11:27:05;6.13;;;5.63;;
25435;SDS011;13363;52.772;-3.890;2023-06-01T11:29:33;6.20;;;5.70;;
25435;SDS011;13363;52.772;-3.890;2023-06-01T11:32:00;6.93;;;6.40;;
25435;SDS011;13363;52.772;-3.890;2023-06-01T11:36:54;7.32;;;6.63;;
25435;SDS011;13363;52.772;-3.890;2023-06-01T11:41:48;7.22;;;6.47;;
25435;SDS011;13363;52.772;-3.890;2023-06-01T11:44:15;6.55;;;6.07;;
25435;SDS011;13363;52.772;-3.890;2023-06-01T11:46:50;6.32;;;5.93;;
25435;SDS011;13363;52.772;-3.890;2023-06-01T11:49:17;7.53;;;6.82;;
25435;SDS011;13363;52.772;-3.890;2023-06-01T11:51:43;7.57;;;6.97;;
25435;SDS011;13363;52.772;-3.890;2023-06-01T11:54:10;7.50;;;6.75;;
25435;SDS011;13363;52.772;-3.890;2023-06-01T11:56:36;6.25;;;5.68;;
25435;SDS011;13363;52.772;-3.890;2023-06-01T11:59:04;7.07;;;6.40;;
25435;SDS011;13363;52.772;-3.890;2023-06-01T12:01:44;8.25;;;7.45;;
25435;SDS011;13363;52.772;-3.890;2023-06-01T12:04:18;8.30;;;7.60;;
25435;SDS011;13363;52.772;-3.890;2023-06-01T12:06:46;9.55;;;6.78;;
25435;SDS011;13363;52.772;-3.890;2023-06-01T12:09:12;7.32;;;6.65;;
25435;SDS011;13363;52.772;-3.890;2023-06-01T12:11:40;8.25;;;7.60;;
25435;SDS011;13363;52.772;-3.890;2023-06-01T12:14:09;6.85;;;6.35;;
25435;SDS011;13363;52.772;-3.890;2023-06-01T12:19:31;7.65;;;7.05;;
25435;SDS011;13363;52.772;-3.890;2023-06-01T12:21:57;7.90;;;7.30;;
25435;SDS011;13363;52.772;-3.890;2023-06-01T12:24:28;6.88;;;6.38;;
25435;SDS011;13363;52.772;-3.890;2023-06-01T12:27:00;7.78;;;7.07;;
25435;SDS011;13363;52.772;-3.890;2023-06-01T12:32:12;7.35;;;6.75;;
25435;SDS011;13363;52.772;-3.890;2023-06-01T12:34:40;7.25;;;6.72;;
25435;SDS011;13363;52.772;-3.890;2023-06-01T12:37:17;7.82;;;7.22;;
25435;SDS011;13363;52.772;-3.890;2023-06-01T12:39:51;7.15;;;6.45;;
25435;SDS011;13363;52.772;-3.890;2023-06-01T12:42:33;7.05;;;6.45;;
25435;SDS011;13363;52.772;-3.890;2023-06-01T12:45:01;7.45;;;6.43;;
25435;SDS011;13363;52.772;-3.890;2023-06-01T12:47:34;7.28;;;6.53;;
25435;SDS011;13363;52.772;-3.890;2023-06-01T12:50:10;6.45;;;5.85;;
25435;SDS011;13363;52.772;-3.890;2023-06-01T12:52:37;6.43;;;5.93;;
25435;SDS011;13363;52.772;-3.890;2023-06-01T12:55:04;7.43;;;6.82;;
25435;SDS011;13363;52.772;-3.890;2023-06-01T12:57:32;7.18;;;6.57;;
25435;SDS011;13363;52.772;-3.890;2023-06-01T12:59:59;7.20;;;6.72;;
25435;SDS011;13363;52.772;-3.890;2023-06-01T13:02:25;7.35;;;6.80;;
25435;SDS011;13363;52.772;-3.890;2023-06-01T13:04:51;7.68;;;6.95;;
25435;SDS011;13363;52.772;-3.890;2023-06-01T13:07:18;7.05;;;6.40;;
25435;SDS011;13363;52.772;-3.890;2023-06-01T13:09:47;8.70;;;7.28;;
25435;SDS011;13363;52.772;-3.890;2023-06-01T13:12:13;7.53;;;6.93;;
25435;SDS011;13363;52.772;-3.890;2023-06-01T13:14:39;7.60;;;6.90;;
25435;SDS011;13363;52.772;-3.890;2023-06-01T13:17:04;8.40;;;7.00;;
25435;SDS011;13363;52.772;-3.890;2023-06-01T13:19:30;7.90;;;7.10;;
25435;SDS011;13363;52.772;-3.890;2023-06-01T13:21:56;7.07;;;6.57;;
25435;SDS011;13363;52.772;-3.890;2023-06-01T13:24:22;8.25;;;7.45;;
25435;SDS011;13363;52.772;-3.890;2023-06-01T13:26:48;7.70;;;7.00;;
25435;SDS011;13363;52.772;-3.890;2023-06-01T13:29:14;8.27;;;7.57;;
25435;SDS011;13363;52.772;-3.890;2023-06-01T13:31:41;7.00;;;6.40;;
25435;SDS011;13363;52.772;-3.890;2023-06-01T13:34:07;8.40;;;7.55;;
25435;SDS011;13363;52.772;-3.890;2023-06-01T13:36:32;8.07;;;7.38;;
25435;SDS011;13363;52.772;-3.890;2023-06-01T13:38:58;7.72;;;7.03;;
25435;SDS011;13363;52.772;-3.890;2023-06-01T13:41:26;6.90;;;6.35;;
25435;SDS011;13363;52.772;-3.890;2023-06-01T13:43:52;7.40;;;6.90;;
25435;SDS011;13363;52.772;-3.890;2023-06-01T13:46:18;7.22;;;6.60;;
25435;SDS011;13363;52.772;-3.890;2023-06-01T13:48:44;7.18;;;6.57;;
25435;SDS011;13363;52.772;-3.890;2023-06-01T13:51:10;7.53;;;6.93;;
25435;SDS011;13363;52.772;-3.890;2023-06-01T13:53:35;7.45;;;6.70;;
25435;SDS011;13363;52.772;-3.890;2023-06-01T13:56:01;7.55;;;6.95;;
25435;SDS011;13363;52.772;-3.890;2023-06-01T13:58:28;8.52;;;7.82;;
25435;SDS011;13363;52.772;-3.890;2023-06-01T14:00:54;7.82;;;6.97;;
25435;SDS011;13363;52.772;-3.890;2023-06-01T14:03:20;7.22;;;6.65;;
25435;SDS011;13363;52.772;-3.890;2023-06-01T14:05:46;7.68;;;6.75;;
25435;SDS011;13363;52.772;-3.890;2023-06-01T14:08:12;7.53;;;6.53;;
25435;SDS011;13363;52.772;-3.890;2023-06-01T14:10:38;7.85;;;7.20;;
25435;SDS011;13363;52.772;-3.890;2023-06-01T14:13:04;6.68;;;6.28;;
25435;SDS011;13363;52.772;-3.890;2023-06-01T14:15:30;6.70;;;6.22;;
25435;SDS011;13363;52.772;-3.890;2023-06-01T14:17:56;7.18;;;6.47;;
25435;SDS011;13363;52.772;-3.890;2023-06-01T14:20:21;7.30;;;6.30;;
25435;SDS011;13363;52.772;-3.890;2023-06-01T14:22:47;7.93;;;7.32;;
25435;SDS011;13363;52.772;-3.890;2023-06-01T14:25:13;7.63;;;6.75;;
25435;SDS011;13363;52.772;-3.890;2023-06-01T14:27:39;7.72;;;7.13;;
25435;SDS011;13363;52.772;-3.890;2023-06-01T14:30:06;6.50;;;6.10;;
25435;SDS011;13363;52.772;-3.890;2023-06-01T14:32:34;7.97;;;7.28;;
25435;SDS011;13363;52.772;-3.890;2023-06-01T14:35:00;8.88;;;7.00;;
25435;SDS011;13363;52.772;-3.890;2023-06-01T14:37:26;7.10;;;6.40;;
25435;SDS011;13363;52.772;-3.890;2023-06-01T14:39:52;9.18;;;6.93;;
25435;SDS011;13363;52.772;-3.890;2023-06-01T14:42:18;7.55;;;6.93;;
25435;SDS011;13363;52.772;-3.890;2023-06-01T14:44:43;7.95;;;7.20;;
25435;SDS011;13363;52.772;-3.890;2023-06-01T14:47:10;6.78;;;6.28;;
25435;SDS011;13363;52.772;-3.890;2023-06-01T14:49:39;7.70;;;6.95;;
25435;SDS011;13363;52.772;-3.890;2023-06-01T14:52:06;7.15;;;6.55;;
25435;SDS011;13363;52.772;-3.890;2023-06-01T14:54:32;8.57;;;7.85;;
25435;SDS011;13363;52.772;-3.890;2023-06-01T14:56:57;9.00;;;7.95;;
25435;SDS011;13363;52.772;-3.890;2023-06-01T14:59:23;8.57;;;7.57;;
25435;SDS011;13363;52.772;-3.890;2023-06-01T15:01:49;7.75;;;7.15;;
25435;SDS011;13363;52.772;-3.890;2023-06-01T15:04:15;8.52;;;7.63;;
25435;SDS011;13363;52.772;-3.890;2023-06-01T15:06:41;9.68;;;7.70;;
25435;SDS011;13363;52.772;-3.890;2023-06-01T15:09:07;7.65;;;7.03;;
25435;SDS011;13363;52.772;-3.890;2023-06-01T15:11:33;8.48;;;7.03;;
25435;SDS011;13363;52.772;-3.890;2023-06-01T15:13:59;8.65;;;7.78;;
25435;SDS011;13363;52.772;-3.890;2023-06-01T15:16:25;7.30;;;6.72;;
25435;SDS011;13363;52.772;-3.890;2023-06-01T15:18:52;9.52;;;8.48;;